Time;durP1;ratioP1;P1;durP2;ratioP2;P2;SDS_P1;SDS_P2;PMS_P1;PMS_P2;Temp;Humidity;BMP_temperature;BMP_pressure;BME280_temperature;BME280_humidity;BME280_pressure;Samples;Min_cycle;Max_cycle;Signal;HPM_P1;HPM_P2
2020/12/26 00:00:16;;;;;;;30.87;15.87;;;1.70;99.90;;;;;;5016408;28;20450;-26
2020/12/26 00:02:43;;;;;;;20.93;13.97;;;1.70;99.90;;;;;;5014794;28;20795;-25
2020/12/26 00:05:10;;;;;;;28.20;13.80;;;1.80;99.90;;;;;;5015344;28;20451;-25
2020/12/26 00:07:36;;;;;;;24.50;15.50;;;1.80;99.90;;;;;;5015727;28;20735;-25
2020/12/26 00:10:03;;;;;;;25.10;14.60;;;1.90;99.90;;;;;;5016004;28;20443;-25
2020/12/26 00:12:32;;;;;;;24.40;13.90;;;1.90;99.90;;;;;;5018021;28;20892;-25
2020/12/26 00:14:59;;;;;;;19.53;14.33;;;2.00;99.90;;;;;;5020114;28;20451;-25
2020/12/26 00:17:25;;;;;;;22.53;13.13;;;2.00;99.90;;;;;;5018955;28;20747;-26
2020/12/26 00:19:53;;;;;;;25.40;12.87;;;2.00;99.90;;;;;;5018858;28;20443;-26
2020/12/26 00:22:19;;;;;;;21.33;12.70;;;2.00;99.90;;;;;;5014838;28;20459;-26
2020/12/26 00:24:45;;;;;;;35.20;14.60;;;2.00;99.90;;;;;;5014951;28;20799;-25
2020/12/26 00:27:12;;;;;;;38.37;13.43;;;2.10;99.90;;;;;;5014955;28;20450;-25
2020/12/26 00:29:39;;;;;;;45.97;15.20;;;2.00;99.90;;;;;;5013861;28;20501;-25
2020/12/26 00:32:05;;;;;;;40.70;13.93;;;1.90;99.90;;;;;;5010879;28;20471;-25
2020/12/26 00:34:32;;;;;;;31.83;13.93;;;1.90;99.90;;;;;;5012522;28;20435;-25
2020/12/26 00:36:59;;;;;;;25.27;15.33;;;1.80;99.90;;;;;;5010359;28;20747;-25
2020/12/26 00:39:26;;;;;;;16.57;12.50;;;1.80;99.90;;;;;;5012179;28;20443;-26
2020/12/26 00:41:53;;;;;;;30.57;13.70;;;1.80;99.90;;;;;;4994329;28;20706;-26
2020/12/26 00:44:19;;;;;;;23.47;13.40;;;1.80;99.90;;;;;;5010578;28;20439;-26
2020/12/26 00:46:46;;;;;;;20.33;14.63;;;1.90;99.90;;;;;;5011556;28;20482;-26
2020/12/26 00:49:12;;;;;;;28.13;13.57;;;1.90;99.90;;;;;;5011555;28;20443;-26
2020/12/26 00:51:39;;;;;;;51.40;15.37;;;1.90;99.90;;;;;;5009954;28;20849;-25
2020/12/26 00:54:06;;;;;;;68.27;19.73;;;1.90;99.90;;;;;;5010534;28;20630;-25
2020/12/26 00:56:36;;;;;;;23.63;13.20;;;1.80;99.90;;;;;;5010534;28;20439;-25
2020/12/26 00:59:03;;;;;;;27.40;14.00;;;1.80;99.90;;;;;;5011640;28;20442;-25
2020/12/26 01:01:29;;;;;;;41.90;14.53;;;1.70;99.90;;;;;;5011016;28;20553;-25
2020/12/26 01:04:03;;;;;;;76.03;18.10;;;1.70;99.90;;;;;;5009682;28;20443;-25
2020/12/26 01:06:29;;;;;;;25.13;12.90;;;1.60;99.90;;;;;;5011828;28;20774;-25
2020/12/26 01:08:56;;;;;;;69.93;18.67;;;1.50;99.90;;;;;;5011568;28;20546;-25
2020/12/26 01:11:25;;;;;;;19.93;13.20;;;1.50;99.90;;;;;;5010817;28;20447;-26
2020/12/26 01:13:51;;;;;;;33.60;15.83;;;1.50;99.90;;;;;;5011391;28;20569;-25
2020/12/26 01:16:18;;;;;;;43.83;15.70;;;1.50;99.90;;;;;;5010742;28;20466;-26
2020/12/26 01:18:44;;;;;;;33.30;14.77;;;1.50;99.90;;;;;;5010880;28;20432;-25
2020/12/26 01:21:14;;;;;;;21.67;13.97;;;1.60;99.90;;;;;;5010510;28;20499;-25
2020/12/26 01:23:41;;;;;;;27.80;14.30;;;1.60;99.90;;;;;;5010944;28;20483;-25
2020/12/26 01:26:08;;;;;;;26.27;15.80;;;1.60;99.90;;;;;;5010955;28;20450;-25
2020/12/26 01:28:36;;;;;;;18.83;12.80;;;1.60;99.90;;;;;;5011835;28;20728;-25
2020/12/26 01:31:03;;;;;;;23.40;15.37;;;1.60;99.90;;;;;;5009035;28;20603;-25
2020/12/26 01:33:29;;;;;;;34.07;16.00;;;1.60;99.90;;;;;;5009598;28;20443;-26
2020/12/26 01:35:56;;;;;;;19.23;14.00;;;1.70;99.90;;;;;;5009637;28;20444;-26
2020/12/26 01:38:22;;;;;;;23.90;15.03;;;1.70;99.90;;;;;;5010433;28;20511;-25
2020/12/26 01:40:50;;;;;;;23.90;14.40;;;1.80;99.90;;;;;;5011499;28;20613;-25
2020/12/26 01:43:16;;;;;;;28.93;15.40;;;1.80;99.90;;;;;;5009948;28;20578;-25
2020/12/26 01:45:45;;;;;;;30.60;14.80;;;1.80;99.90;;;;;;5010010;28;20529;-25
2020/12/26 01:48:15;;;;;;;20.40;13.13;;;1.70;99.90;;;;;;5010623;28;20444;-25
2020/12/26 01:50:43;;;;;;;34.57;14.87;;;1.70;99.90;;;;;;5010331;28;20444;-26
2020/12/26 01:53:11;;;;;;;28.13;14.63;;;1.80;99.90;;;;;;5009477;28;20802;-26
2020/12/26 01:55:37;;;;;;;33.43;15.50;;;1.80;99.90;;;;;;5009595;28;20440;-26
2020/12/26 01:58:04;;;;;;;20.47;13.37;;;1.80;99.90;;;;;;5010000;28;20582;-25
2020/12/26 02:00:31;;;;;;;22.87;14.03;;;1.80;99.90;;;;;;5009347;28;20752;-25
2020/12/26 02:02:59;;;;;;;32.40;13.70;;;1.80;99.90;;;;;;5009497;28;20448;-26
2020/12/26 02:05:25;;;;;;;20.90;13.70;;;1.80;99.90;;;;;;5009023;28;20778;-27
2020/12/26 02:07:52;;;;;;;31.40;15.27;;;1.80;99.90;;;;;;5009181;28;20501;-25
2020/12/26 02:10:19;;;;;;;33.73;14.20;;;1.80;99.90;;;;;;5009861;28;20458;-25
2020/12/26 02:12:47;;;;;;;35.60;15.60;;;1.80;99.90;;;;;;5008539;28;20435;-26
2020/12/26 02:15:14;;;;;;;18.73;13.83;;;1.80;99.90;;;;;;5010793;28;20463;-26
2020/12/26 02:17:41;;;;;;;25.90;14.07;;;1.80;99.90;;;;;;5009782;28;20467;-25
2020/12/26 02:20:09;;;;;;;23.10;14.50;;;1.80;99.90;;;;;;5008723;28;20447;-26
2020/12/26 02:22:36;;;;;;;19.43;13.37;;;1.70;99.90;;;;;;5010017;28;20931;-25
2020/12/26 02:25:03;;;;;;;27.37;13.30;;;1.70;99.90;;;;;;5009050;28;20549;-25
2020/12/26 02:27:30;;;;;;;37.83;15.00;;;1.70;99.90;;;;;;5011171;28;20497;-25
2020/12/26 02:29:57;;;;;;;22.03;15.03;;;1.60;99.90;;;;;;5012792;28;20627;-25
2020/12/26 02:32:24;;;;;;;26.40;13.50;;;1.70;99.90;;;;;;5010410;28;20447;-25
2020/12/26 02:34:50;;;;;;;20.17;14.80;;;1.70;99.90;;;;;;5010756;28;20481;-25
2020/12/26 02:37:17;;;;;;;24.37;15.03;;;1.70;99.90;;;;;;5009938;28;20443;-26
2020/12/26 02:39:44;;;;;;;23.10;13.93;;;1.70;99.90;;;;;;5009696;28;20510;-25
2020/12/26 02:42:13;;;;;;;24.67;14.10;;;1.70;99.90;;;;;;5007956;28;20798;-25
2020/12/26 02:44:40;;;;;;;16.47;11.83;;;1.70;99.90;;;;;;5009645;28;20459;-25
2020/12/26 02:47:06;;;;;;;30.03;14.00;;;1.70;99.90;;;;;;5008990;28;20459;-26
2020/12/26 02:49:33;;;;;;;18.57;12.90;;;1.70;99.90;;;;;;5009981;28;20498;-25
2020/12/26 02:52:00;;;;;;;16.90;13.10;;;1.70;99.90;;;;;;5008579;28;20869;-25
2020/12/26 02:54:26;;;;;;;17.10;12.73;;;1.70;99.90;;;;;;5007361;28;21011;-26
2020/12/26 02:56:53;;;;;;;19.87;14.40;;;1.70;99.90;;;;;;5008700;28;20435;-25
2020/12/26 02:59:20;;;;;;;21.10;13.30;;;1.70;99.90;;;;;;5010433;28;20508;-25
2020/12/26 03:01:47;;;;;;;21.27;13.73;;;1.70;99.90;;;;;;5009340;28;20479;-26
2020/12/26 03:04:13;;;;;;;30.47;13.70;;;1.60;99.90;;;;;;5010637;28;20443;-25
2020/12/26 03:06:40;;;;;;;15.67;12.70;;;1.70;99.90;;;;;;5008880;28;20447;-25
2020/12/26 03:09:07;;;;;;;21.07;13.37;;;1.70;99.90;;;;;;5009035;28;20488;-25
2020/12/26 03:11:33;;;;;;;16.97;12.20;;;1.60;99.90;;;;;;5009541;28;20734;-25
2020/12/26 03:14:00;;;;;;;17.20;12.20;;;1.60;99.90;;;;;;5009961;28;20479;-25
2020/12/26 03:16:27;;;;;;;17.67;12.80;;;1.60;99.90;;;;;;5010238;28;20865;-25
2020/12/26 03:18:54;;;;;;;17.00;11.77;;;1.60;99.90;;;;;;5010154;28;20443;-25
2020/12/26 03:21:20;;;;;;;17.87;13.40;;;1.50;99.90;;;;;;5008226;28;20474;-25
2020/12/26 03:23:47;;;;;;;19.60;14.00;;;1.60;99.90;;;;;;5009146;28;20482;-25
2020/12/26 03:26:13;;;;;;;16.73;12.47;;;1.60;99.90;;;;;;5009220;28;20462;-26
2020/12/26 03:28:40;;;;;;;18.07;13.00;;;1.60;99.90;;;;;;5008838;28;20439;-25
2020/12/26 03:31:06;;;;;;;22.10;14.80;;;1.50;99.90;;;;;;5008123;28;20452;-25
2020/12/26 03:33:34;;;;;;;21.80;15.87;;;1.60;99.90;;;;;;5007928;28;20712;-26
2020/12/26 03:36:00;;;;;;;25.00;15.23;;;1.70;99.90;;;;;;5008676;28;20728;-26
2020/12/26 03:38:27;;;;;;;17.20;12.80;;;1.70;99.90;;;;;;5009277;28;20547;-26
2020/12/26 03:40:54;;;;;;;18.93;14.00;;;1.80;99.90;;;;;;5007550;28;20514;-25
2020/12/26 03:43:20;;;;;;;18.17;14.60;;;1.80;99.90;;;;;;5007997;28;20455;-25
2020/12/26 03:45:47;;;;;;;19.67;15.23;;;1.80;99.90;;;;;;5007864;28;20459;-25
2020/12/26 03:48:13;;;;;;;18.47;15.10;;;1.80;99.90;;;;;;5009218;28;20484;-25
2020/12/26 03:50:41;;;;;;;18.83;14.10;;;1.80;99.90;;;;;;5008782;28;20601;-25
2020/12/26 03:53:07;;;;;;;17.10;13.70;;;1.80;99.90;;;;;;5008094;28;20439;-25
2020/12/26 03:55:34;;;;;;;18.20;14.63;;;1.80;99.90;;;;;;5007114;28;20780;-25
2020/12/26 03:58:01;;;;;;;17.07;13.67;;;1.70;99.90;;;;;;5008453;28;20698;-25
2020/12/26 04:00:27;;;;;;;16.70;12.63;;;1.70;99.90;;;;;;5009123;28;20463;-26
2020/12/26 04:02:54;;;;;;;16.90;12.97;;;1.70;99.90;;;;;;5008430;28;20889;-26
2020/12/26 04:05:21;;;;;;;17.20;12.53;;;1.70;99.90;;;;;;5007392;28;20450;-26
2020/12/26 04:07:49;;;;;;;15.67;11.60;;;1.70;99.90;;;;;;5011397;28;20588;-25
2020/12/26 04:10:15;;;;;;;18.80;13.17;;;1.70;99.90;;;;;;5012903;28;20935;-25
2020/12/26 04:12:42;;;;;;;16.93;13.60;;;1.60;99.90;;;;;;5015449;28;20439;-25
2020/12/26 04:15:09;;;;;;;14.63;12.00;;;1.70;99.90;;;;;;5015312;28;20502;-26
2020/12/26 04:17:35;;;;;;;17.33;12.70;;;1.70;99.90;;;;;;5013387;28;20728;-25
2020/12/26 04:20:03;;;;;;;19.03;12.67;;;1.70;99.90;;;;;;5010137;28;20865;-26
2020/12/26 04:22:29;;;;;;;17.80;13.77;;;1.80;99.90;;;;;;5010627;28;20746;-26
2020/12/26 04:24:57;;;;;;;19.80;14.73;;;1.90;99.90;;;;;;4990551;28;615338;-25
2020/12/26 04:27:24;;;;;;;16.93;13.53;;;1.90;99.90;;;;;;5012096;28;20201;-26
2020/12/26 04:29:51;;;;;;;17.00;12.20;;;1.90;99.90;;;;;;5011834;28;20455;-25
2020/12/26 04:32:17;;;;;;;16.10;13.40;;;2.00;99.90;;;;;;5010342;28;20529;-26
2020/12/26 04:34:47;;;;;;;20.00;14.90;;;2.00;99.90;;;;;;5011317;28;20860;-25
2020/12/26 04:37:14;;;;;;;16.77;13.60;;;2.10;99.90;;;;;;5010893;28;20836;-26
2020/12/26 04:39:42;;;;;;;20.90;15.27;;;2.00;99.90;;;;;;5011336;28;20474;-26
2020/12/26 04:42:10;;;;;;;19.27;16.00;;;2.00;99.90;;;;;;5012145;28;20463;-25
2020/12/26 04:44:36;;;;;;;17.60;15.00;;;2.00;99.90;;;;;;5011532;28;20471;-25
2020/12/26 04:47:09;;;;;;;19.90;15.70;;;2.10;99.90;;;;;;5010409;28;20455;-26
2020/12/26 04:49:39;;;;;;;20.07;14.40;;;2.10;99.90;;;;;;5010540;28;20455;-26
2020/12/26 04:52:09;;;;;;;16.43;13.47;;;2.10;99.90;;;;;;5011161;28;20432;-25
2020/12/26 04:54:42;;;;;;;17.13;14.20;;;2.20;99.90;;;;;;5010324;28;20778;-25
2020/12/26 04:57:10;;;;;;;15.60;12.10;;;2.20;99.90;;;;;;5010718;28;20535;-25
2020/12/26 04:59:36;;;;;;;15.80;12.97;;;2.20;99.90;;;;;;5011060;28;20431;-25
2020/12/26 05:02:05;;;;;;;14.00;11.57;;;2.20;99.90;;;;;;5010393;28;20549;-26
2020/12/26 05:04:31;;;;;;;14.93;13.13;;;2.20;99.90;;;;;;5010228;28;20443;-26
2020/12/26 05:06:58;;;;;;;15.27;12.10;;;2.20;99.90;;;;;;5010304;28;20444;-25
2020/12/26 05:09:24;;;;;;;17.77;12.07;;;2.20;99.90;;;;;;5011156;28;20559;-25
2020/12/26 05:11:53;;;;;;;16.73;13.77;;;2.10;99.90;;;;;;5010566;28;20513;-25
2020/12/26 05:14:22;;;;;;;16.83;12.67;;;2.00;99.90;;;;;;5009896;28;20442;-25
2020/12/26 05:16:49;;;;;;;17.43;12.43;;;2.00;99.90;;;;;;5009377;28;20856;-25
2020/12/26 05:19:16;;;;;;;15.67;12.43;;;1.90;99.90;;;;;;5010527;28;20725;-25
2020/12/26 05:21:45;;;;;;;16.53;14.03;;;1.90;99.90;;;;;;5009541;28;20464;-25
2020/12/26 05:24:12;;;;;;;18.93;12.43;;;2.00;99.90;;;;;;5008220;28;20483;-25
2020/12/26 05:26:43;;;;;;;19.57;13.10;;;2.10;99.90;;;;;;5007889;28;20524;-26
2020/12/26 05:29:11;;;;;;;18.57;14.40;;;2.10;99.90;;;;;;5010076;28;20509;-25
2020/12/26 05:31:54;;;;;;;20.93;15.50;;;2.10;99.90;;;;;;5008717;28;20447;-26
2020/12/26 05:34:21;;;;;;;19.30;13.87;;;2.20;99.90;;;;;;5009121;28;20501;-26
2020/12/26 05:36:48;;;;;;;25.70;17.83;;;2.20;99.90;;;;;;5010734;28;20921;-25
2020/12/26 05:39:15;;;;;;;24.60;16.70;;;2.10;99.90;;;;;;5009508;28;20454;-26
2020/12/26 05:41:43;;;;;;;21.00;16.10;;;2.10;99.90;;;;;;5008885;28;20530;-25
2020/12/26 05:44:11;;;;;;;20.20;16.13;;;2.00;99.90;;;;;;4992387;28;20456;-26
2020/12/26 05:46:51;;;;;;;23.60;17.20;;;2.00;99.90;;;;;;5010061;28;20463;-25
2020/12/26 05:49:30;;;;;;;22.63;18.30;;;2.10;99.90;;;;;;5009598;28;20463;-25
2020/12/26 05:51:59;;;;;;;22.27;16.00;;;2.10;99.90;;;;;;5009685;28;20501;-26
2020/12/26 05:54:30;;;;;;;22.30;16.43;;;2.20;99.90;;;;;;5009209;28;20497;-25
2020/12/26 05:57:07;;;;;;;24.90;17.23;;;2.20;99.90;;;;;;5010287;28;20617;-25
2020/12/26 05:59:34;;;;;;;24.47;18.47;;;2.20;99.90;;;;;;5010614;28;20761;-27
2020/12/26 06:02:21;;;;;;;21.80;17.37;;;2.30;99.90;;;;;;5010443;28;20525;-25
2020/12/26 06:04:59;;;;;;;23.23;17.53;;;2.30;99.90;;;;;;5009126;28;20478;-26
2020/12/26 06:07:34;;;;;;;23.43;17.37;;;2.20;99.90;;;;;;5009462;28;20439;-25
2020/12/26 06:10:01;;;;;;;26.27;16.63;;;2.20;99.90;;;;;;5009402;28;20460;-26
2020/12/26 06:12:29;;;;;;;21.57;16.33;;;2.10;99.90;;;;;;5009100;28;20465;-25
2020/12/26 06:14:57;;;;;;;26.30;19.53;;;2.00;99.90;;;;;;5008866;28;20955;-25
2020/12/26 06:17:26;;;;;;;22.20;16.90;;;2.10;99.90;;;;;;5007337;28;20565;-25
2020/12/26 06:19:56;;;;;;;20.60;18.37;;;2.20;99.90;;;;;;5009267;28;20451;-27
2020/12/26 06:22:24;;;;;;;24.60;17.27;;;2.20;99.90;;;;;;5009518;28;20906;-25
2020/12/26 06:24:53;;;;;;;23.00;18.93;;;2.20;99.90;;;;;;5006060;28;20590;-25
2020/12/26 06:27:24;;;;;;;27.47;18.17;;;2.10;99.90;;;;;;5008755;28;21048;-25
2020/12/26 06:29:50;;;;;;;27.07;19.20;;;2.00;99.90;;;;;;5008178;28;20569;-25
2020/12/26 06:32:18;;;;;;;31.93;18.60;;;1.80;99.90;;;;;;5007470;28;20502;-26
2020/12/26 06:34:45;;;;;;;23.37;17.13;;;1.70;99.90;;;;;;5007432;28;20449;-25
2020/12/26 06:37:12;;;;;;;28.57;19.17;;;1.60;99.90;;;;;;5008338;28;20809;-25
2020/12/26 06:39:40;;;;;;;27.83;18.30;;;1.70;99.90;;;;;;5007747;28;20446;-25
2020/12/26 06:42:14;;;;;;;25.00;16.80;;;1.80;99.90;;;;;;5008694;28;20525;-26
2020/12/26 06:44:41;;;;;;;24.13;17.30;;;1.90;99.90;;;;;;5006981;28;20458;-26
2020/12/26 06:47:08;;;;;;;26.97;17.43;;;2.00;99.90;;;;;;5006963;28;20467;-25
2020/12/26 06:49:34;;;;;;;25.60;17.93;;;2.00;99.90;;;;;;5007530;28;21055;-25
2020/12/26 06:52:01;;;;;;;27.50;17.50;;;2.00;99.90;;;;;;5008177;28;20736;-26
2020/12/26 06:54:56;;;;;;;23.50;18.20;;;2.00;99.90;;;;;;5008254;28;20782;-26
2020/12/26 06:57:37;;;;;;;27.77;18.50;;;2.10;99.90;;;;;;4973180;28;20470;-25
2020/12/26 07:00:26;;;;;;;27.97;18.63;;;2.10;99.90;;;;;;5007672;28;21052;-25
2020/12/26 07:03:16;;;;;;;19.97;16.20;;;2.20;99.90;;;;;;5008472;28;20786;-25
2020/12/26 07:05:42;;;;;;;25.43;19.30;;;2.30;99.90;;;;;;5008325;28;20539;-26
2020/12/26 07:08:37;;;;;;;25.43;18.83;;;2.40;99.90;;;;;;5006211;28;20542;-26
2020/12/26 07:11:22;;;;;;;25.00;17.87;;;2.40;99.90;;;;;;5008399;28;20517;-25
2020/12/26 07:13:51;;;;;;;35.60;20.90;;;2.40;99.90;;;;;;5007591;28;20731;-25
2020/12/26 07:16:37;;;;;;;23.00;18.93;;;2.40;99.90;;;;;;5006051;28;20670;-25
2020/12/26 07:19:29;;;;;;;24.10;18.33;;;2.30;99.90;;;;;;5007703;28;20450;-26
2020/12/26 07:21:57;;;;;;;35.83;24.70;;;2.30;99.90;;;;;;5006757;28;20736;-25
2020/12/26 07:24:25;;;;;;;34.67;23.40;;;2.30;99.90;;;;;;5007643;28;20507;-25
2020/12/26 07:26:53;;;;;;;27.67;18.83;;;2.30;99.90;;;;;;5006725;28;20505;-25
2020/12/26 07:29:24;;;;;;;29.07;17.63;;;2.20;99.90;;;;;;5007047;28;21046;-26
2020/12/26 07:31:51;;;;;;;28.53;18.77;;;2.30;99.90;;;;;;5007300;28;20462;-25
2020/12/26 07:34:37;;;;;;;25.50;18.87;;;2.30;99.90;;;;;;5005708;28;20995;-25
2020/12/26 07:37:04;;;;;;;26.87;17.90;;;2.30;99.90;;;;;;5004450;28;20864;-26
2020/12/26 07:39:31;;;;;;;22.97;18.20;;;2.30;99.90;;;;;;5006129;28;20450;-25
2020/12/26 07:41:59;;;;;;;27.57;19.50;;;2.40;99.90;;;;;;5008855;28;20463;-25
2020/12/26 07:44:30;;;;;;;25.23;17.97;;;2.30;99.90;;;;;;5006683;28;20601;-26
2020/12/26 07:46:57;;;;;;;28.23;18.80;;;2.30;99.90;;;;;;5010333;28;20918;-25
2020/12/26 07:49:25;;;;;;;26.03;19.13;;;2.30;99.90;;;;;;5011719;28;20515;-25
2020/12/26 07:52:03;;;;;;;32.23;18.70;;;2.30;99.90;;;;;;5012357;28;20644;-25
2020/12/26 07:54:32;;;;;;;30.40;20.33;;;2.30;99.90;;;;;;5015447;28;20450;-26
2020/12/26 07:57:03;;;;;;;20.90;18.07;;;2.30;99.90;;;;;;5014102;28;20641;-25
2020/12/26 07:59:30;;;;;;;29.30;20.63;;;2.40;99.90;;;;;;5009521;28;20854;-25
2020/12/26 08:01:57;;;;;;;33.33;19.97;;;2.50;99.90;;;;;;5008245;28;20579;-26
2020/12/26 08:04:24;;;;;;;32.73;23.53;;;2.60;99.90;;;;;;5009908;28;20526;-26
2020/12/26 08:06:51;;;;;;;30.07;20.77;;;2.70;99.90;;;;;;5009633;28;20884;-25
2020/12/26 08:09:19;;;;;;;31.00;19.20;;;2.70;99.90;;;;;;5009186;28;20471;-27
2020/12/26 08:11:46;;;;;;;28.37;19.93;;;2.60;99.90;;;;;;5009654;28;20728;-26
2020/12/26 08:14:13;;;;;;;26.77;18.43;;;2.50;99.90;;;;;;5010668;28;20553;-26
2020/12/26 08:16:40;;;;;;;28.53;19.40;;;2.40;99.90;;;;;;5011099;28;20529;-25
2020/12/26 08:19:07;;;;;;;25.13;17.83;;;2.40;99.90;;;;;;5010919;28;20443;-26
2020/12/26 08:21:34;;;;;;;29.07;20.90;;;2.40;99.90;;;;;;5010357;28;20959;-25
2020/12/26 08:24:02;;;;;;;29.27;20.93;;;2.40;99.90;;;;;;5009705;28;20625;-25
2020/12/26 08:26:30;;;;;;;27.27;20.27;;;2.50;99.90;;;;;;5009521;28;20769;-25
2020/12/26 08:29:01;;;;;;;28.30;18.00;;;2.60;99.90;;;;;;5009883;28;20542;-25
2020/12/26 08:31:31;;;;;;;30.57;22.80;;;2.60;99.90;;;;;;5009784;28;20470;-25
2020/12/26 08:34:07;;;;;;;38.10;23.17;;;2.50;99.90;;;;;;5009542;28;20660;-25
2020/12/26 08:36:39;;;;;;;30.83;20.70;;;2.50;99.90;;;;;;5009504;28;20490;-25
2020/12/26 08:39:08;;;;;;;31.00;20.10;;;2.40;99.90;;;;;;5007998;28;20454;-25
2020/12/26 08:41:40;;;;;;;32.70;22.40;;;2.50;99.90;;;;;;5008954;28;20774;-25
2020/12/26 08:44:10;;;;;;;30.40;19.37;;;2.50;99.90;;;;;;5007076;28;20448;-26
2020/12/26 08:46:42;;;;;;;30.50;18.47;;;2.50;99.90;;;;;;5007464;28;20554;-25
2020/12/26 08:49:09;;;;;;;25.77;19.07;;;2.60;99.90;;;;;;5007924;28;20514;-26
2020/12/26 08:51:40;;;;;;;22.97;17.07;;;2.60;99.90;;;;;;5007173;28;20459;-25
2020/12/26 08:54:17;;;;;;;27.10;18.37;;;2.70;99.90;;;;;;5006860;28;20494;-25
2020/12/26 08:56:43;;;;;;;25.73;18.10;;;2.90;99.90;;;;;;5009538;28;20448;-26
2020/12/26 08:59:10;;;;;;;30.17;17.90;;;3.10;99.90;;;;;;5008536;28;20945;-25
2020/12/26 09:01:36;;;;;;;26.73;20.07;;;3.20;99.90;;;;;;5007204;28;21001;-26
2020/12/26 09:04:04;;;;;;;24.10;16.57;;;3.40;99.90;;;;;;5009961;28;20744;-25
2020/12/26 09:06:31;;;;;;;23.67;16.60;;;3.50;99.90;;;;;;5007960;28;20452;-25
2020/12/26 09:08:58;;;;;;;25.67;17.77;;;3.70;99.90;;;;;;5008707;28;20427;-26
2020/12/26 09:11:30;;;;;;;24.63;17.10;;;3.70;99.90;;;;;;5008474;28;20550;-25
2020/12/26 09:13:56;;;;;;;25.80;17.17;;;3.60;99.90;;;;;;5008260;28;20869;-25
2020/12/26 09:16:28;;;;;;;25.20;17.80;;;3.60;99.90;;;;;;5009407;28;20473;-25
2020/12/26 09:19:01;;;;;;;23.80;14.93;;;3.50;99.90;;;;;;5007804;28;20457;-26
2020/12/26 09:21:29;;;;;;;25.37;17.33;;;3.50;99.90;;;;;;5007498;28;21068;-25
2020/12/26 09:23:57;;;;;;;26.90;17.50;;;3.50;99.90;;;;;;5008338;28;20475;-25
2020/12/26 09:26:26;;;;;;;19.33;15.43;;;3.60;99.90;;;;;;5008840;28;20530;-25
2020/12/26 09:28:54;;;;;;;20.17;15.20;;;3.60;99.90;;;;;;5009623;28;20452;-25
2020/12/26 09:31:22;;;;;;;21.00;15.50;;;3.80;99.90;;;;;;5009902;28;20819;-25
2020/12/26 09:33:49;;;;;;;23.17;16.77;;;4.00;99.90;;;;;;5009453;28;20685;-25
2020/12/26 09:36:20;;;;;;;21.77;15.43;;;4.30;99.90;;;;;;5007932;28;20435;-26
2020/12/26 09:38:48;;;;;;;26.40;16.43;;;4.40;99.90;;;;;;5007400;28;20517;-26
2020/12/26 09:41:17;;;;;;;21.00;15.90;;;4.50;99.90;;;;;;5007117;28;20439;-25
2020/12/26 09:43:45;;;;;;;24.57;15.20;;;4.50;99.90;;;;;;5008188;28;20486;-25
2020/12/26 09:46:12;;;;;;;16.20;13.83;;;4.30;99.90;;;;;;5006989;28;20456;-26
2020/12/26 09:48:38;;;;;;;22.80;15.87;;;4.20;99.90;;;;;;5008294;28;20463;-25
2020/12/26 09:51:11;;;;;;;22.30;15.67;;;4.10;99.90;;;;;;5009064;28;20780;-25
2020/12/26 09:53:37;;;;;;;25.57;15.30;;;4.10;99.90;;;;;;5006532;28;20459;-25
2020/12/26 09:56:07;;;;;;;20.40;15.53;;;4.10;99.90;;;;;;5006741;28;20637;-25
2020/12/26 09:58:34;;;;;;;27.37;16.90;;;4.10;99.90;;;;;;5006182;28;20444;-26
2020/12/26 10:01:00;;;;;;;23.70;15.37;;;4.10;99.90;;;;;;5005672;28;20997;-25
2020/12/26 10:03:27;;;;;;;28.63;17.07;;;4.10;99.90;;;;;;5005992;28;20464;-26
2020/12/26 10:05:54;;;;;;;28.33;17.70;;;4.20;99.90;;;;;;5006696;28;20531;-25
2020/12/26 10:08:20;;;;;;;21.63;16.70;;;4.30;99.90;;;;;;5006551;28;20503;-25
2020/12/26 10:10:47;;;;;;;20.23;15.53;;;4.40;99.90;;;;;;5008393;28;20443;-25
2020/12/26 10:13:14;;;;;;;23.77;15.47;;;4.50;99.90;;;;;;5008105;28;20463;-25
2020/12/26 10:15:41;;;;;;;21.97;15.10;;;4.70;99.90;;;;;;5004341;28;20822;-25
2020/12/26 10:18:07;;;;;;;22.47;15.10;;;4.90;99.90;;;;;;5007095;28;20467;-25
2020/12/26 10:20:34;;;;;;;21.97;15.27;;;5.10;99.90;;;;;;5005644;28;20435;-25
2020/12/26 10:23:01;;;;;;;27.90;14.63;;;5.20;99.90;;;;;;5006422;28;20927;-26
2020/12/26 10:25:27;;;;;;;21.57;15.30;;;5.10;99.90;;;;;;5006875;28;20471;-26
2020/12/26 10:27:54;;;;;;;21.43;14.80;;;5.10;99.90;;;;;;5008380;28;20443;-26
2020/12/26 10:30:21;;;;;;;25.43;14.27;;;5.10;99.90;;;;;;5007130;28;20782;-25
2020/12/26 10:32:48;;;;;;;19.77;15.70;;;5.20;99.90;;;;;;5007287;28;20967;-26
2020/12/26 10:35:15;;;;;;;22.00;14.23;;;5.40;99.90;;;;;;5006642;28;20482;-25
2020/12/26 10:37:41;;;;;;;20.87;16.10;;;5.50;99.90;;;;;;5000562;28;20826;-25
2020/12/26 10:40:08;;;;;;;21.87;14.97;;;5.60;99.90;;;;;;5005946;28;20629;-25
2020/12/26 10:42:35;;;;;;;26.83;15.70;;;5.80;99.90;;;;;;5004398;28;20562;-26
2020/12/26 10:45:01;;;;;;;20.57;14.70;;;6.00;99.90;;;;;;5005342;28;21061;-26
2020/12/26 10:47:28;;;;;;;18.97;13.30;;;6.20;99.90;;;;;;5003432;28;20480;-26
2020/12/26 10:49:55;;;;;;;19.50;14.73;;;6.30;99.90;;;;;;5004709;28;20751;-25
2020/12/26 10:52:22;;;;;;;15.60;13.17;;;6.20;99.90;;;;;;5005304;28;21096;-25
2020/12/26 10:54:48;;;;;;;20.43;13.93;;;6.10;99.90;;;;;;5003973;28;20431;-25
2020/12/26 10:57:15;;;;;;;25.40;13.63;;;5.90;99.90;;;;;;5004106;28;20774;-25
2020/12/26 10:59:42;;;;;;;23.60;16.10;;;5.80;99.90;;;;;;5004583;28;20450;-26
2020/12/26 11:02:09;;;;;;;18.83;14.30;;;5.60;99.90;;;;;;5001994;28;21034;-26
2020/12/26 11:04:36;;;;;;;16.77;13.93;;;5.50;99.90;;;;;;5003633;28;20447;-25
2020/12/26 11:07:04;;;;;;;20.80;14.20;;;5.40;99.90;;;;;;5003852;28;20439;-25
2020/12/26 11:09:30;;;;;;;19.70;13.80;;;5.20;99.90;;;;;;5004335;28;20439;-25
2020/12/26 11:11:57;;;;;;;19.73;14.23;;;5.10;99.90;;;;;;5004501;28;20439;-25
2020/12/26 11:14:24;;;;;;;20.30;13.90;;;5.10;99.90;;;;;;5001631;28;20435;-25
2020/12/26 11:16:52;;;;;;;19.30;14.77;;;5.10;99.90;;;;;;5001471;28;20459;-26
2020/12/26 11:19:19;;;;;;;23.20;16.00;;;5.20;99.90;;;;;;5002910;28;20459;-25
2020/12/26 11:21:50;;;;;;;20.20;15.73;;;5.20;99.90;;;;;;5003909;28;20752;-26
2020/12/26 11:24:17;;;;;;;21.17;16.60;;;5.20;99.90;;;;;;5005527;28;20740;-25
2020/12/26 11:26:43;;;;;;;18.60;14.23;;;5.20;99.90;;;;;;5003773;28;20588;-25
2020/12/26 11:29:10;;;;;;;25.87;15.80;;;5.20;99.90;;;;;;5003715;28;20727;-25
2020/12/26 11:31:37;;;;;;;20.33;16.23;;;5.30;99.90;;;;;;5005080;28;20471;-25
2020/12/26 11:34:04;;;;;;;25.77;15.83;;;5.30;99.90;;;;;;5004403;28;20443;-26
2020/12/26 11:36:31;;;;;;;20.20;13.67;;;5.50;99.90;;;;;;5003682;28;20439;-26
2020/12/26 11:38:58;;;;;;;18.20;14.07;;;5.50;99.90;;;;;;5005106;28;20436;-25
2020/12/26 11:41:26;;;;;;;18.73;13.50;;;5.70;99.90;;;;;;5005588;28;20455;-25
2020/12/26 11:43:54;;;;;;;17.37;13.73;;;5.90;99.90;;;;;;5003536;28;20463;-25
2020/12/26 11:46:20;;;;;;;16.77;13.83;;;6.00;99.90;;;;;;5001640;28;20451;-26
2020/12/26 11:48:47;;;;;;;15.00;13.43;;;6.10;99.90;;;;;;5003840;28;20463;-27
2020/12/26 11:51:14;;;;;;;15.90;12.60;;;6.00;99.90;;;;;;5004858;28;20440;-25
2020/12/26 11:53:41;;;;;;;19.20;13.63;;;5.90;99.90;;;;;;5002648;28;20451;-26
2020/12/26 11:56:09;;;;;;;17.60;12.37;;;5.80;99.90;;;;;;5006347;28;20572;-25
2020/12/26 11:58:36;;;;;;;18.03;13.80;;;5.80;99.90;;;;;;5005298;28;20455;-25
2020/12/26 12:01:03;;;;;;;17.73;13.57;;;5.70;99.90;;;;;;5003091;28;20455;-26
2020/12/26 12:03:29;;;;;;;16.67;12.60;;;5.80;99.90;;;;;;5002232;28;20791;-25
2020/12/26 12:05:56;;;;;;;17.63;13.27;;;5.80;99.90;;;;;;5001333;28;20467;-25
2020/12/26 12:08:22;;;;;;;15.90;12.53;;;5.80;99.90;;;;;;5002816;28;20788;-25
2020/12/26 12:10:49;;;;;;;20.03;14.33;;;5.70;99.90;;;;;;5003643;28;20443;-27
2020/12/26 12:13:16;;;;;;;14.50;11.70;;;5.80;99.90;;;;;;5002868;28;20436;-25
2020/12/26 12:15:43;;;;;;;16.80;12.50;;;5.70;99.90;;;;;;5003190;28;20455;-25
2020/12/26 12:18:10;;;;;;;18.70;13.10;;;5.70;99.90;;;;;;5003220;28;20447;-25
2020/12/26 12:20:37;;;;;;;22.30;14.10;;;5.70;99.90;;;;;;5003432;28;20760;-25
2020/12/26 12:23:04;;;;;;;14.37;11.90;;;5.80;99.90;;;;;;5002325;28;20555;-26
2020/12/26 12:25:31;;;;;;;18.03;11.97;;;5.70;99.90;;;;;;5003041;28;20487;-26
2020/12/26 12:27:58;;;;;;;16.80;11.70;;;5.70;99.90;;;;;;5006127;28;20435;-26
2020/12/26 12:30:27;;;;;;;16.30;11.63;;;5.60;99.90;;;;;;5005931;28;20501;-26
2020/12/26 12:32:54;;;;;;;19.83;13.47;;;5.60;99.90;;;;;;5006401;28;21060;-25
2020/12/26 12:35:20;;;;;;;18.97;12.57;;;5.50;99.90;;;;;;5006505;28;20443;-26
2020/12/26 12:37:48;;;;;;;22.17;12.83;;;5.60;99.90;;;;;;5005001;28;20526;-25
2020/12/26 12:40:15;;;;;;;14.50;11.00;;;5.80;99.90;;;;;;5006450;28;20427;-26